createdAt,value
2023-08-12T00:04:37.312Z,19.50
2023-08-12T00:14:41.089Z,19.60
2023-08-12T00:24:46.454Z,19.50
2023-08-12T00:34:50.257Z,19.50
2023-08-12T00:44:55.260Z,19.50
2023-08-12T00:54:59.061Z,19.40
2023-08-12T01:05:04.604Z,19.40
2023-08-12T01:15:13.474Z,19.50
2023-08-12T01:25:18.563Z,19.50
2023-08-12T01:35:28.622Z,19.50
2023-08-12T01:45:34.296Z,19.40
2023-08-12T01:55:37.948Z,19.50
2023-08-12T02:05:43.078Z,19.50
2023-08-12T02:15:46.896Z,19.70
2023-08-12T02:25:52.104Z,19.60
2023-08-12T02:35:56.687Z,19.50
2023-08-12T02:46:01.801Z,19.60
2023-08-12T02:56:05.886Z,19.50
2023-08-12T03:06:11.048Z,19.50
2023-08-12T03:16:15.637Z,19.40
2023-08-12T03:26:21.807Z,19.40
2023-08-12T03:36:25.512Z,19.30
2023-08-12T03:46:30.590Z,19.40
2023-08-12T03:56:34.446Z,19.10
2023-08-12T04:06:39.962Z,19.00
2023-08-12T04:16:43.721Z,18.80
2023-08-12T04:26:48.801Z,18.90
2023-08-12T04:36:52.457Z,19.20
2023-08-12T04:46:57.612Z,19.30
2023-08-12T04:57:01.277Z,19.40
2023-08-12T05:07:06.533Z,19.50
2023-08-12T05:17:10.260Z,19.50
2023-08-12T05:27:15.347Z,19.60
2023-08-12T05:37:19.056Z,19.60
2023-08-12T05:47:24.162Z,19.70
2023-08-12T05:57:29.430Z,19.90
2023-08-12T06:07:34.926Z,20.00
2023-08-12T06:17:38.587Z,20.10
2023-08-12T06:27:43.678Z,20.10
2023-08-12T06:37:47.473Z,20.00
2023-08-12T06:47:52.556Z,20.10
2023-08-12T06:57:56.229Z,20.40
2023-08-12T07:08:01.332Z,20.80
2023-08-12T07:18:05.936Z,21.00
2023-08-12T07:28:10.917Z,21.40
2023-08-12T07:38:14.688Z,21.90
2023-08-12T07:48:20.077Z,22.50
2023-08-12T07:58:24.098Z,23.00
2023-08-12T08:08:29.086Z,23.30
2023-08-12T08:18:33.104Z,23.80
2023-08-12T08:28:38.166Z,24.00
2023-08-12T08:38:41.829Z,24.10
2023-08-12T08:48:47.622Z,24.40
2023-08-12T08:58:51.357Z,24.70
2023-08-12T09:08:56.894Z,24.60
2023-08-12T09:19:00.739Z,24.80
2023-08-12T09:29:06.031Z,25.30
2023-08-12T09:39:10.763Z,25.50
2023-08-12T09:49:15.740Z,25.50
2023-08-12T09:59:23.714Z,26.20
2023-08-12T10:09:29.025Z,26.50
2023-08-12T10:19:33.333Z,26.40
2023-08-12T10:29:38.679Z,26.60
2023-08-12T10:39:42.480Z,26.40
2023-08-12T10:49:52.217Z,25.30
2023-08-12T10:59:56.938Z,23.90
2023-08-12T11:10:09.004Z,23.10
2023-08-12T11:20:14.827Z,22.80
2023-08-12T11:30:23.371Z,22.60
2023-08-12T11:40:29.072Z,22.60
2023-08-12T11:50:34.188Z,22.70
2023-08-12T12:00:37.953Z,22.90
2023-08-12T12:10:43.140Z,23.00
2023-08-12T12:20:57.662Z,23.00
2023-08-12T12:31:02.813Z,23.00
2023-08-12T12:41:06.581Z,23.00
2023-08-12T12:51:11.629Z,22.80
2023-08-12T13:01:15.495Z,23.00
2023-08-12T13:11:20.709Z,23.50
2023-08-12T13:21:24.629Z,24.30
2023-08-12T13:31:29.628Z,24.60
2023-08-12T13:41:33.371Z,24.90
2023-08-12T13:51:38.389Z,24.70
2023-08-12T14:01:43.810Z,24.90
2023-08-12T14:11:48.879Z,25.40
2023-08-12T14:21:52.527Z,25.30
2023-08-12T14:31:57.597Z,25.80
2023-08-12T14:42:01.872Z,26.00
2023-08-12T14:52:09.026Z,25.90
2023-08-12T15:02:13.430Z,26.70
2023-08-12T15:12:18.633Z,26.50
2023-08-12T15:22:22.306Z,25.90
2023-08-12T15:32:27.307Z,25.80
2023-08-12T15:42:31.000Z,25.50
2023-08-12T15:52:36.224Z,25.60
2023-08-12T16:02:39.860Z,25.40
2023-08-12T16:12:44.953Z,25.20
2023-08-12T16:22:48.748Z,25.10
2023-08-12T16:32:53.739Z,25.50
2023-08-12T16:42:57.540Z,25.60
2023-08-12T16:53:02.786Z,25.40
2023-08-12T17:03:07.023Z,25.30
2023-08-12T17:13:12.235Z,25.00
2023-08-12T17:23:16.487Z,24.80
2023-08-12T17:33:21.499Z,24.90
2023-08-12T17:43:25.221Z,28.90
2023-08-12T17:53:30.356Z,30.90
2023-08-12T18:03:34.472Z,30.10
2023-08-12T18:13:39.728Z,30.30
2023-08-12T18:23:43.424Z,28.90
2023-08-12T18:33:48.381Z,26.00
2023-08-12T18:43:52.139Z,24.80
2023-08-12T18:53:59.733Z,24.30
2023-08-12T19:04:04.102Z,23.80
2023-08-12T19:14:09.050Z,23.40
2023-08-12T19:24:12.731Z,23.10
2023-08-12T19:46:19.538Z,22.50
2023-08-12T19:56:25.201Z,22.20
2023-08-12T20:06:30.697Z,22.00
2023-08-12T20:16:34.578Z,21.90
2023-08-12T20:26:39.718Z,21.80
2023-08-12T20:36:44.787Z,21.70
2023-08-12T20:46:49.915Z,21.50
2023-08-12T20:56:53.897Z,21.40
2023-08-12T21:06:59.576Z,21.20
2023-08-12T21:17:03.301Z,21.00
2023-08-12T21:27:08.331Z,20.80
2023-08-12T21:37:12.035Z,20.80
2023-08-12T21:47:17.135Z,20.60
2023-08-12T21:57:21.109Z,20.50
2023-08-12T22:07:26.273Z,20.30
2023-08-12T22:17:30.900Z,20.10
2023-08-12T22:27:35.983Z,20.10
2023-08-12T22:37:39.900Z,20.00
2023-08-12T22:47:44.969Z,20.00
2023-08-12T22:57:49.407Z,20.10
2023-08-12T23:07:54.546Z,20.10
2023-08-12T23:17:58.770Z,20.00
2023-08-12T23:28:04.602Z,20.00
2023-08-12T23:38:08.834Z,20.00
2023-08-12T23:48:13.828Z,19.90
2023-08-12T23:58:17.613Z,19.60
